Latest Weather Observations for Wattamolla

IDN60901

Issued at 10:12 pm EDT Tuesday 3 March 2015 (issued every 10 minutes, with the page automatically refreshed every 10 minutes)

About weather observations | Map of Sydney area stations | Latest observations for Sydney area | Other Formats
Station Details ID: 066208 Name: WATTAMOLLA AWS Lat: -34.14 Lon: 151.12 Height: 44.0 m
Data from the previous 72 hours. | See also: Recent months for locations in New South Wales
Date/Time
EDT
Tmp

°C
App
Tmp
°C
Dew
Point
°C
Rel
Hum
%
Delta-T

°C
Wind Press
QNH
hPa
Press
MSL
hPa
Rain
since
9 am
mm
Dir
 
Spd
km/h
Gust
km/h
Spd
kts
Gust
kts
03/10:00pm - - - - - N 6 7 3 4 - - -
03/09:30pm - - - - - N 9 9 5 5 - - -
03/09:00pm - - - - - NE 9 13 5 7 - - -
03/08:30pm - - - - - NNE 9 15 5 8 - - -
03/08:00pm - - - - - NE 9 13 5 7 - - -
03/07:30pm - - - - - NE 13 17 7 9 - - -
03/07:00pm - - - - - NE 11 15 6 8 - - -
03/06:30pm - - - - - NE 13 17 7 9 - - -
03/06:00pm - - - - - NE 15 24 8 13 - - -
03/05:30pm - - - - - NE 15 22 8 12 - - -
03/05:00pm - - - - - NE 17 26 9 14 - - -
03/04:30pm - - - - - NE 20 28 11 15 - - -
03/04:00pm - - - - - NE 19 28 10 15 - - -
03/03:30pm - - - - - NE 20 33 11 18 - - -
03/03:00pm - - - - - NE 20 30 11 16 - - -
03/02:30pm - - - - - NE 20 32 11 17 - - -
03/02:00pm - - - - - NE 22 32 12 17 - - -
03/01:30pm - - - - - NE 22 30 12 16 - - -
03/01:00pm - - - - - NE 24 33 13 18 - - -
03/12:30pm - - - - - ENE 20 28 11 15 - - -
03/12:00pm - - - - - NNE 15 22 8 12 - - -
03/11:30am - - - - - N 15 24 8 13 - - -
03/11:00am - - - - - N 20 30 11 16 - - -
03/10:30am - - - - - N 17 28 9 15 - - -
03/10:00am - - - - - NNW 13 19 7 10 - - -
03/09:30am - - - - - N 19 28 10 15 - - -
03/09:00am - - - - - NNW 13 20 7 11 - - -
03/08:30am - - - - - NNW 9 13 5 7 - - -
03/08:00am - - - - - NW 13 17 7 9 - - -
03/07:30am - - - - - NW 15 19 8 10 - - -
03/07:00am - - - - - NW 17 20 9 11 - - -
03/06:30am - - - - - NW 15 19 8 10 - - -
03/06:00am - - - - - NNW 13 15 7 8 - - -
03/05:30am - - - - - NNW 15 17 8 9 - - -
03/05:00am - - - - - NW 19 20 10 11 - - -
03/04:30am - - - - - NW 19 22 10 12 - - -
03/04:00am - - - - - NW 17 19 9 10 - - -
03/03:30am - - - - - NNW 15 17 8 9 - - -
03/03:00am - - - - - NNW 15 17 8 9 - - -
03/02:30am - - - - - NNW 13 15 7 8 - - -
03/02:00am - - - - - NNW 13 17 7 9 - - -
03/01:30am - - - - - NNW 13 17 7 9 - - -
03/01:00am - - - - - NNW 13 19 7 10 - - -
03/12:30am - - - - - NNW 13 17 7 9 - - -
 
Date/Time
EDT
Tmp

°C
App
Tmp
°C
Dew
Point
°C
Rel
Hum
%
Delta-T

°C
Wind Press
QNH
hPa
Press
MSL
hPa
Rain
since
9 am
mm
Dir
 
Spd
km/h
Gust
km/h
Spd
kts
Gust
kts
02/11:30pm - - - - - NNW 13 17 7 9 - - -
02/11:00pm - - - - - NNW 13 15 7 8 - - -
02/10:30pm - - - - - NNW 15 17 8 9 - - -
02/10:00pm - - - - - N 15 19 8 10 - - -
02/09:30pm - - - - - N 13 15 7 8 - - -
02/09:00pm - - - - - N 9 15 5 8 - - -
02/08:30pm - - - - - N 9 13 5 7 - - -
02/08:00pm - - - - - NNE 9 13 5 7 - - -
02/07:30pm - - - - - ENE 13 17 7 9 - - -
02/07:00pm - - - - - E 9 13 5 7 - - -
02/06:30pm - - - - - SSE 9 13 5 7 - - -
02/06:00pm - - - - - SSW 9 15 5 8 - - -
02/05:30pm - - - - - S 11 19 6 10 - - -
02/05:00pm - - - - - SSW 13 19 7 10 - - -
02/04:30pm - - - - - S 17 26 9 14 - - -
02/04:00pm - - - - - S 22 32 12 17 - - -
02/03:30pm - - - - - S 26 32 14 17 - - -
02/03:00pm - - - - - S 32 33 17 18 - - -
02/02:30pm - - - - - S 30 33 16 18 - - -
02/02:00pm - - - - - S 32 37 17 20 - - -
02/01:30pm - - - - - S 35 39 19 21 - - -
02/01:00pm - - - - - S 37 43 20 23 - - -
02/12:30pm - - - - - - - - - - - - -
02/12:00pm - - - - - S 37 43 20 23 - - -
02/11:30am - - - - - S 39 44 21 24 - - -
02/11:00am - - - - - S 39 46 21 25 - - -
02/10:30am - - - - - S 41 48 22 26 - - -
02/10:00am - - - - - S 41 52 22 28 - - -
02/09:30am - - - - - S 46 52 25 28 - - -
02/09:00am - - - - - S 44 56 24 30 - - -
02/08:30am - - - - - S 48 56 26 30 - - -
02/08:00am - - - - - S 48 56 26 30 - - -
02/07:30am - - - - - S 48 57 26 31 - - -
02/07:00am - - - - - S 43 50 23 27 - - -
02/06:30am - - - - - S 43 52 23 28 - - -
02/06:00am - - - - - S 37 50 20 27 - - -
02/05:30am - - - - - S 33 54 18 29 - - -
02/05:08am - - - - - S 35 54 19 29 - - -
02/05:00am - - - - - S 41 54 22 29 - - -
02/04:30am - - - - - S 44 54 24 29 - - -
02/04:00am - - - - - S 43 54 23 29 - - -
02/03:30am - - - - - S 46 56 25 30 - - -
02/03:00am - - - - - S 48 57 26 31 - - -
02/02:30am - - - - - S 50 61 27 33 - - -
02/02:00am - - - - - S 52 61 28 33 - - -
02/01:30am - - - - - SSE 56 70 30 38 - - -
02/01:00am - - - - - S 59 72 32 39 - - -
02/12:30am - - - - - SSE 61 74 33 40 - - -
02/12:00am - - - - - S 67 83 36 45 - - -
 
Date/Time
EDT
Tmp

°C
App
Tmp
°C
Dew
Point
°C
Rel
Hum
%
Delta-T

°C
Wind Press
QNH
hPa
Press
MSL
hPa
Rain
since
9 am
mm
Dir
 
Spd
km/h
Gust
km/h
Spd
kts
Gust
kts
01/11:30pm - - - - - SSE 67 80 36 43 - - -
01/11:00pm - - - - - S 69 82 37 44 - - -
01/10:30pm - - - - - S 70 87 38 47 - - -
01/10:23pm - - - - - S 69 87 37 47 - - -
01/10:00pm - - - - - S 72 89 39 48 - - -
01/09:41pm - - - - - S 72 91 39 49 - - -
01/09:30pm - - - - - S 69 85 37 46 - - -
01/09:08pm - - - - - S 69 87 37 47 - - -
01/09:00pm - - - - - S 67 83 36 45 - - -
01/08:42pm - - - - - S 67 85 36 46 - - -
01/08:30pm - - - - - S 67 80 36 43 - - -
01/08:00pm - - - - - S 67 83 36 45 - - -
01/07:30pm - - - - - S 70 82 38 44 - - -
01/07:12pm - - - - - SSE 65 83 35 45 - - -
01/07:00pm - - - - - S 63 80 34 43 - - -
01/06:51pm - - - - - S 67 85 36 46 - - -
01/06:30pm - - - - - S 74 83 40 45 - - -
01/06:00pm - - - - - S 67 76 36 41 - - -
01/05:30pm - - - - - S 61 72 33 39 - - -
01/05:00pm - - - - - S 65 100 35 54 - - -
01/04:30pm - - - - - S 65 98 35 53 - - -
01/04:27pm - - - - - S 63 98 34 53 - - -
01/04:11pm - - - - - S 41 80 22 43 - - -
01/04:09pm - - - - - S 37 78 20 42 - - -
01/04:07pm - - - - - S 32 59 17 32 - - -
01/04:00pm - - - - - S 24 41 13 22 - - -
01/03:48pm - - - - - S 69 93 37 50 - - -
01/03:47pm - - - - - S 72 93 39 50 - - -
01/03:30pm - - - - - S 78 96 42 52 - - -
01/03:27pm - - - - - S 78 96 42 52 - - -
01/03:16pm - - - - - SSW 54 85 29 46 - - -
01/03:12pm - - - - - S 37 83 20 45 - - -
01/03:06pm - - - - - ENE 17 54 9 29 - - -
01/03:00pm - - - - - NE 15 26 8 14 - - -
01/02:30pm - - - - - NNE 13 17 7 9 - - -
01/02:00pm - - - - - NE 11 19 6 10 - - -
01/01:30pm - - - - - N 11 22 6 12 - - -
01/01:00pm - - - - - E 7 13 4 7 - - -
01/12:30pm - - - - - N 13 26 7 14 - - -
01/12:00pm - - - - - N 17 26 9 14 - - -
01/11:30am - - - - - NNW 15 26 8 14 - - -
01/11:00am - - - - - N 17 26 9 14 - - -
01/10:30am - - - - - NNW 20 30 11 16 - - -
01/10:00am - - - - - NNW 13 26 7 14 - - -
01/09:30am - - - - - NNW 20 33 11 18 - - -
01/09:00am - - - - - NNW 17 26 9 14 - - -
01/08:30am - - - - - NNW 20 28 11 15 - - -
01/07:00am - - - - - N 11 15 6 8 - - -
01/06:30am - - - - - N 15 17 8 9 - - -
01/06:00am - - - - - - - - - - - - -
01/05:30am - - - - - N 15 19 8 10 - - -
01/05:00am - - - - - N 15 17 8 9 - - -
01/04:30am - - - - - N 15 17 8 9 - - -
01/04:00am - - - - - N 13 17 7 9 - - -
01/03:30am - - - - - N 13 15 7 8 - - -
01/03:00am - - - - - N 17 19 9 10 - - -
01/02:30am - - - - - N 13 19 7 10 - - -
01/02:00am - - - - - N 15 17 8 9 - - -
01/01:30am - - - - - N 15 17 8 9 - - -
01/01:00am - - - - - N 13 17 7 9 - - -
01/12:30am - - - - - N 15 17 8 9 - - -
01/12:00am - - - - - N 13 17 7 9 - - -
 
Date/Time
EDT
Tmp

°C
App
Tmp
°C
Dew
Point
°C
Rel
Hum
%
Delta-T

°C
Wind Press
QNH
hPa
Press
MSL
hPa
Rain
since
9 am
mm
Dir
 
Spd
km/h
Gust
km/h
Spd
kts
Gust
kts
28/11:30pm - - - - - N 15 17 8 9 - - -
28/11:00pm - - - - - N 20 28 11 15 - - -
28/10:30pm - - - - - N 28 39 15 21 - - -

Latest Capital City Observations: Canberra | Sydney | Melbourne | Brisbane | Adelaide | Perth | Hobart | Darwin

Other Formats:

Comma delimited format used in spreadsheet applications
http://www.bom.gov.au/fwo/IDN60901/IDN60901.95752.axf

JavaScript Object Notation format (JSON) in row-major order
http://www.bom.gov.au/fwo/IDN60901/IDN60901.95752.json